createdAt,value
2022-12-08T00:01:22.850Z,-3.58
2022-12-08T00:03:50.247Z,-3.56
2022-12-08T00:06:45.780Z,-3.58
2022-12-08T00:09:27.127Z,-3.65
2022-12-08T00:11:56.288Z,-3.72
2022-12-08T00:14:42.805Z,-3.78
2022-12-08T00:17:10.809Z,-3.80
2022-12-08T00:19:39.152Z,-3.77
2022-12-08T00:22:07.079Z,-3.88
2022-12-08T00:24:35.784Z,-3.90
2022-12-08T00:27:02.715Z,-4.00
2022-12-08T00:29:29.237Z,-3.93
2022-12-08T00:31:55.891Z,-3.94
2022-12-08T00:34:22.478Z,-3.92
2022-12-08T00:36:48.892Z,-3.87
2022-12-08T00:39:17.048Z,-3.87
2022-12-08T00:42:02.100Z,-3.85
2022-12-08T00:44:28.586Z,-3.86
2022-12-08T00:46:55.810Z,-3.89
2022-12-08T00:49:22.925Z,-3.89
2022-12-08T00:51:49.357Z,-3.93
2022-12-08T00:54:16.103Z,-3.93
2022-12-08T00:56:42.529Z,-3.97
2022-12-08T00:59:09.032Z,-3.99
2022-12-08T01:01:36.214Z,-4.01
2022-12-08T01:04:07.901Z,-4.05
2022-12-08T01:06:38.634Z,-4.02
2022-12-08T01:09:07.004Z,-4.02
2022-12-08T01:11:34.637Z,-4.07
2022-12-08T01:14:01.105Z,-4.08
2022-12-08T01:16:30.439Z,-4.05
2022-12-08T01:18:58.234Z,-4.03
2022-12-08T01:21:27.078Z,-4.06
2022-12-08T01:23:54.152Z,-4.09
2022-12-08T01:26:21.056Z,-4.16
2022-12-08T01:28:47.995Z,-4.20
2022-12-08T01:31:19.558Z,-4.23
2022-12-08T01:33:47.059Z,-4.24
2022-12-08T01:36:22.021Z,-4.32
2022-12-08T01:38:48.804Z,-4.30
2022-12-08T01:41:17.780Z,-4.31
2022-12-08T01:44:02.375Z,-4.33
2022-12-08T01:46:31.492Z,-4.35
2022-12-08T01:49:05.223Z,-4.37
2022-12-08T01:51:38.326Z,-4.47
2022-12-08T01:54:06.952Z,-4.44
2022-12-08T01:56:45.556Z,-4.50
2022-12-08T01:59:12.917Z,-4.50
2022-12-08T02:01:39.795Z,-4.52
2022-12-08T02:04:06.705Z,-4.52
2022-12-08T02:06:37.508Z,-4.55
2022-12-08T02:09:05.926Z,-4.54
2022-12-08T02:11:32.373Z,-4.55
2022-12-08T02:14:01.955Z,-4.53
2022-12-08T02:16:45.454Z,-4.55
2022-12-08T02:19:31.233Z,-4.52
2022-12-08T02:22:07.169Z,-4.47
2022-12-08T02:25:02.601Z,-4.50
2022-12-08T02:27:50.862Z,-4.58
2022-12-08T02:30:29.505Z,-4.59
2022-12-08T02:33:17.545Z,-4.59
2022-12-08T02:35:58.616Z,-4.63
2022-12-08T02:39:02.801Z,-4.64
2022-12-08T02:41:50.594Z,-4.64
2022-12-08T02:44:29.908Z,-4.62
2022-12-08T02:47:08.405Z,-4.62
2022-12-08T02:49:35.642Z,-4.60
2022-12-08T02:52:26.624Z,-4.62
2022-12-08T02:55:01.773Z,-4.63
2022-12-08T02:57:43.441Z,-4.60
2022-12-08T03:00:15.442Z,-4.53
2022-12-08T03:03:23.635Z,-4.52
2022-12-08T03:06:05.576Z,-4.53
2022-12-08T03:08:43.443Z,-4.49
2022-12-08T03:11:32.986Z,-4.47
2022-12-08T03:14:02.343Z,-4.42
2022-12-08T03:16:30.406Z,-4.34
2022-12-08T03:19:10.682Z,-4.26
2022-12-08T03:21:38.773Z,-4.27
2022-12-08T03:24:07.671Z,-4.25
2022-12-08T03:26:58.295Z,-4.16
2022-12-08T03:29:24.917Z,-4.11
2022-12-08T03:31:59.011Z,-4.05
2022-12-08T03:34:28.655Z,-4.01
2022-12-08T03:36:55.635Z,-4.02
2022-12-08T03:39:22.157Z,-3.98
2022-12-08T03:41:48.589Z,-3.97
2022-12-08T03:44:15.038Z,-4.02
2022-12-08T03:46:41.460Z,-4.01
2022-12-08T03:49:07.891Z,-3.98
2022-12-08T03:51:34.321Z,-3.95
2022-12-08T03:54:00.735Z,-3.95
2022-12-08T03:56:33.859Z,-3.92
2022-12-08T03:59:00.641Z,-3.98
2022-12-08T04:01:27.442Z,-3.91
2022-12-08T04:03:54.261Z,-3.83
2022-12-08T04:06:22.118Z,-3.78
2022-12-08T04:08:49.925Z,-3.76
2022-12-08T04:11:17.062Z,-3.70
2022-12-08T04:13:44.014Z,-3.69
2022-12-08T04:16:28.750Z,-3.76
2022-12-08T04:18:55.352Z,-3.72
2022-12-08T04:21:22.198Z,-3.62
2022-12-08T04:23:48.684Z,-3.67
2022-12-08T04:26:15.717Z,-3.59
2022-12-08T04:28:42.226Z,-3.55
2022-12-08T04:31:08.817Z,-3.54
2022-12-08T04:33:35.712Z,-3.51
2022-12-08T04:36:03.270Z,-3.51
2022-12-08T04:38:29.846Z,-3.49
2022-12-08T04:40:56.301Z,-3.53
2022-12-08T04:43:22.760Z,-3.56
2022-12-08T04:45:49.172Z,-3.65
2022-12-08T04:48:15.970Z,-3.65
2022-12-08T04:50:44.512Z,-3.70
2022-12-08T04:53:12.084Z,-3.67
2022-12-08T04:55:41.208Z,-3.67
2022-12-08T04:58:07.683Z,-3.68
2022-12-08T05:00:34.125Z,-3.70
2022-12-08T05:03:00.724Z,-3.77
2022-12-08T05:05:27.248Z,-3.82
2022-12-08T05:07:53.780Z,-3.85
2022-12-08T05:10:20.248Z,-3.85
2022-12-08T05:12:46.706Z,-3.88
2022-12-08T05:15:13.126Z,-3.97
2022-12-08T05:17:39.597Z,-4.03
2022-12-08T05:20:07.709Z,-4.03
2022-12-08T05:22:34.099Z,-4.05
2022-12-08T05:25:00.721Z,-4.10
2022-12-08T05:27:27.196Z,-4.14
2022-12-08T05:29:53.722Z,-4.12
2022-12-08T05:32:20.155Z,-4.11
2022-12-08T05:34:46.561Z,-4.14
2022-12-08T05:37:13.065Z,-4.12
2022-12-08T05:39:39.472Z,-4.14
2022-12-08T05:42:06.390Z,-4.16
2022-12-08T05:44:32.899Z,-4.14
2022-12-08T05:46:59.385Z,-4.15
2022-12-08T05:49:26.010Z,-4.13
2022-12-08T05:51:52.845Z,-4.14
2022-12-08T05:54:19.365Z,-4.16
2022-12-08T05:56:45.841Z,-4.15
2022-12-08T05:59:12.332Z,-4.17
2022-12-08T06:01:39.200Z,-4.16
2022-12-08T06:04:05.639Z,-4.16
2022-12-08T06:06:34.383Z,-4.17
2022-12-08T06:09:03.490Z,-4.23
2022-12-08T06:11:31.345Z,-4.32
2022-12-08T06:13:58.960Z,-4.30
2022-12-08T06:16:26.645Z,-4.32
2022-12-08T06:18:53.441Z,-4.31
2022-12-08T06:21:20.387Z,-4.32
2022-12-08T06:23:51.799Z,-4.28
2022-12-08T06:26:19.405Z,-4.32
2022-12-08T06:28:45.948Z,-4.32
2022-12-08T06:31:19.014Z,-4.41
2022-12-08T06:33:45.910Z,-4.42
2022-12-08T06:36:14.437Z,-4.41
2022-12-08T06:38:43.653Z,-4.42
2022-12-08T06:41:11.998Z,-4.44
2022-12-08T06:43:38.864Z,-4.47
2022-12-08T06:46:07.976Z,-4.50
2022-12-08T06:48:34.703Z,-4.46
2022-12-08T06:51:16.184Z,-4.45
2022-12-08T06:53:43.867Z,-4.45
2022-12-08T06:56:11.474Z,-4.41
2022-12-08T06:58:38.299Z,-4.44
2022-12-08T07:01:10.113Z,-4.44
2022-12-08T07:03:38.267Z,-4.49
2022-12-08T07:06:05.535Z,-4.50
2022-12-08T07:08:33.456Z,-4.48
2022-12-08T07:10:59.949Z,-4.52
2022-12-08T07:13:26.411Z,-4.54
2022-12-08T07:15:52.839Z,-4.56
2022-12-08T07:18:19.311Z,-4.57
2022-12-08T07:20:45.797Z,-4.61
2022-12-08T07:23:12.231Z,-4.67
2022-12-08T07:25:38.667Z,-4.62
2022-12-08T07:28:09.564Z,-4.54
2022-12-08T07:30:36.084Z,-4.50
2022-12-08T07:33:04.615Z,-4.47
2022-12-08T07:35:31.105Z,-4.48
2022-12-08T07:37:57.752Z,-4.48
2022-12-08T07:40:24.219Z,-4.42
2022-12-08T07:42:50.661Z,-4.37
2022-12-08T07:45:17.148Z,-4.39
2022-12-08T07:47:43.573Z,-4.44
2022-12-08T07:50:10.093Z,-4.41
2022-12-08T07:52:36.562Z,-4.38
2022-12-08T07:55:03.021Z,-4.38
2022-12-08T07:57:29.460Z,-4.39
2022-12-08T07:59:55.873Z,-4.41
2022-12-08T08:02:24.891Z,-4.39
2022-12-08T08:04:52.205Z,-4.38
2022-12-08T08:07:18.688Z,-4.33
2022-12-08T08:09:45.749Z,-4.27
2022-12-08T08:15:00.537Z,-4.16
2022-12-08T08:17:27.392Z,-4.12
2022-12-08T08:19:53.991Z,-4.03
2022-12-08T08:22:20.507Z,-3.93
2022-12-08T08:24:46.915Z,-3.87
2022-12-08T08:27:13.960Z,-3.76
2022-12-08T08:29:40.376Z,-3.64
2022-12-08T08:32:06.865Z,-3.53
2022-12-08T08:34:33.340Z,-3.34
2022-12-08T08:36:59.840Z,-3.26
2022-12-08T08:39:26.364Z,-3.16
2022-12-08T08:41:53.019Z,-3.02
2022-12-08T08:44:19.470Z,-2.87
2022-12-08T08:46:45.951Z,-2.73
2022-12-08T08:49:12.527Z,-2.53
2022-12-08T08:51:39.032Z,-2.34
2022-12-08T08:54:05.585Z,-2.19
2022-12-08T08:56:32.103Z,-2.08
2022-12-08T08:58:58.614Z,-1.96
2022-12-08T09:01:27.686Z,-1.89
2022-12-08T09:03:55.516Z,-1.83
2022-12-08T09:06:23.444Z,-1.82
2022-12-08T09:08:50.235Z,-1.73
2022-12-08T09:11:18.641Z,-1.57
2022-12-08T09:13:49.356Z,-1.45
2022-12-08T09:16:15.901Z,-1.37
2022-12-08T09:18:42.441Z,-1.34
2022-12-08T09:21:16.529Z,-1.28
2022-12-08T09:23:43.519Z,-1.18
2022-12-08T09:26:10.377Z,-1.18
2022-12-08T09:28:37.095Z,-1.04
2022-12-08T09:31:03.842Z,-0.92
2022-12-08T09:33:30.395Z,-0.97
2022-12-08T09:35:56.941Z,-0.98
2022-12-08T09:38:23.373Z,-0.92
2022-12-08T09:40:52.951Z,-0.87
2022-12-08T09:43:31.448Z,-0.83
2022-12-08T09:45:58.796Z,-0.73
2022-12-08T09:48:33.182Z,-0.69
2022-12-08T09:50:59.608Z,-0.64
2022-12-08T09:53:35.137Z,-0.60
2022-12-08T09:56:19.135Z,-0.64
2022-12-08T09:59:06.267Z,-0.62
2022-12-08T10:01:38.034Z,-0.65
2022-12-08T10:04:14.401Z,-0.59
2022-12-08T10:06:42.515Z,-0.47
2022-12-08T10:09:38.693Z,-0.50
2022-12-08T10:12:11.281Z,-0.50
2022-12-08T10:14:47.369Z,-0.46
2022-12-08T10:17:31.776Z,-0.58
2022-12-08T10:20:02.366Z,-0.63
2022-12-08T10:22:38.687Z,-0.55
2022-12-08T10:25:19.009Z,-0.47
2022-12-08T10:27:49.761Z,-0.35
2022-12-08T10:30:18.559Z,-0.23
2022-12-08T10:32:48.043Z,-0.24
2022-12-08T10:35:17.106Z,-0.25
2022-12-08T10:38:03.907Z,-0.35
2022-12-08T10:40:42.144Z,-0.42
2022-12-08T10:43:17.529Z,-0.35
2022-12-08T10:45:44.893Z,-0.23
2022-12-08T10:48:13.997Z,-0.27
2022-12-08T10:50:43.417Z,-0.23
2022-12-08T10:53:09.871Z,-0.14
2022-12-08T10:55:52.712Z,-0.12
2022-12-08T10:58:29.656Z,0.02
2022-12-08T11:01:04.992Z,-0.03
2022-12-08T11:03:36.369Z,0.11
2022-12-08T11:06:15.714Z,0.25
2022-12-08T11:08:51.599Z,0.24
2022-12-08T11:11:21.085Z,0.32
2022-12-08T11:13:51.901Z,0.14
2022-12-08T11:16:20.099Z,0.19
2022-12-08T11:18:56.186Z,0.25
2022-12-08T11:21:34.254Z,0.29
2022-12-08T11:24:36.025Z,0.36
2022-12-08T11:27:06.359Z,0.25
2022-12-08T11:29:35.432Z,0.03
2022-12-08T11:32:12.692Z,0.18
2022-12-08T11:34:47.949Z,0.22
2022-12-08T11:37:24.092Z,0.18
2022-12-08T11:39:55.183Z,0.21
2022-12-08T11:42:28.969Z,0.12
2022-12-08T11:45:07.387Z,0.10
2022-12-08T11:47:42.699Z,0.16
2022-12-08T11:50:30.111Z,0.22
2022-12-08T11:52:58.429Z,0.22
2022-12-08T11:55:37.321Z,0.27
2022-12-08T11:58:37.158Z,0.31
2022-12-08T12:01:04.048Z,0.32
2022-12-08T12:03:47.964Z,0.31
2022-12-08T12:06:53.752Z,0.40
2022-12-08T12:09:49.394Z,0.41
2022-12-08T12:12:40.626Z,0.47
2022-12-08T12:15:32.770Z,0.48
2022-12-08T12:18:22.775Z,0.46
2022-12-08T12:21:06.547Z,0.51
2022-12-08T12:23:44.588Z,0.47
2022-12-08T12:26:20.046Z,0.49
2022-12-08T12:29:00.638Z,0.51
2022-12-08T12:31:41.510Z,0.51
2022-12-08T12:34:16.739Z,0.51
2022-12-08T12:36:49.312Z,0.56
2022-12-08T12:39:20.553Z,0.53
2022-12-08T12:41:51.764Z,0.53
2022-12-08T12:44:18.240Z,0.55
2022-12-08T12:46:50.704Z,0.60
2022-12-08T12:49:36.073Z,0.67
2022-12-08T12:52:02.723Z,0.66
2022-12-08T12:54:29.569Z,0.65
2022-12-08T12:57:16.175Z,0.62
2022-12-08T12:59:55.794Z,0.52
2022-12-08T13:02:26.443Z,0.51
2022-12-08T13:05:08.776Z,0.31
2022-12-08T13:07:51.636Z,0.19
2022-12-08T13:10:22.820Z,0.22
2022-12-08T13:13:09.626Z,0.20
2022-12-08T13:15:40.119Z,0.27
2022-12-08T13:18:16.710Z,0.15
2022-12-08T13:20:48.203Z,0.13
2022-12-08T13:23:37.983Z,0.23
2022-12-08T13:26:23.616Z,0.14
2022-12-08T13:29:01.178Z,0.28
2022-12-08T13:31:51.389Z,0.37
2022-12-08T13:34:36.655Z,0.44
2022-12-08T13:37:12.401Z,0.42
2022-12-08T13:39:38.751Z,0.45
2022-12-08T13:42:27.350Z,0.50
2022-12-08T13:45:20.162Z,0.53
2022-12-08T13:48:20.571Z,0.59
2022-12-08T13:50:57.598Z,0.67
2022-12-08T13:57:00.020Z,0.67
2022-12-08T13:59:18.443Z,0.69
2022-12-08T14:01:47.336Z,0.68
2022-12-08T14:07:04.153Z,0.62
2022-12-08T14:09:36.776Z,0.57
2022-12-08T14:12:17.704Z,0.47
2022-12-08T14:15:03.050Z,0.41
2022-12-08T14:17:30.719Z,0.42
2022-12-08T14:20:12.335Z,0.45
2022-12-08T14:22:40.951Z,0.20
2022-12-08T14:25:14.917Z,0.05
2022-12-08T14:27:41.557Z,-0.02
2022-12-08T14:30:19.276Z,0.05
2022-12-08T14:32:58.325Z,0.06
2022-12-08T14:35:36.797Z,0.07
2022-12-08T14:38:13.627Z,0.09
2022-12-08T14:40:42.532Z,0.16
2022-12-08T14:43:08.985Z,0.18
2022-12-08T14:45:41.455Z,0.20
2022-12-08T14:48:39.022Z,0.23
2022-12-08T14:51:20.845Z,0.22
2022-12-08T14:54:08.236Z,0.24
2022-12-08T14:56:39.541Z,0.22
2022-12-08T14:59:32.390Z,0.22
2022-12-08T15:02:24.144Z,0.19
2022-12-08T15:04:58.437Z,0.07
2022-12-08T15:07:28.698Z,0.09
2022-12-08T15:10:15.118Z,0.08
2022-12-08T15:12:57.559Z,0.06
2022-12-08T15:15:24.296Z,0.09
2022-12-08T15:17:58.519Z,0.06
2022-12-08T15:20:27.594Z,0.05
2022-12-08T15:22:58.416Z,0.07
2022-12-08T15:25:25.469Z,0.07
2022-12-08T15:27:56.496Z,0.08
2022-12-08T15:30:23.359Z,0.11
2022-12-08T15:32:52.217Z,0.10
2022-12-08T15:35:18.731Z,0.09
2022-12-08T15:37:46.307Z,0.06
2022-12-08T15:40:19.474Z,0.02
2022-12-08T15:42:45.964Z,0.04
2022-12-08T15:45:16.615Z,0.06
2022-12-08T15:47:45.000Z,0.07
2022-12-08T15:50:17.655Z,0.06
2022-12-08T15:52:44.672Z,0.02
2022-12-08T15:55:16.084Z,-0.01
2022-12-08T16:00:56.613Z,-0.04
2022-12-08T16:04:08.905Z,-0.09
2022-12-08T16:09:20.610Z,-0.08
2022-12-08T16:12:09.094Z,-0.15
2022-12-08T16:17:23.667Z,-0.16
2022-12-08T16:19:50.085Z,-0.18
2022-12-08T16:25:18.178Z,-0.20
2022-12-08T16:30:33.349Z,-0.20
2022-12-08T16:32:59.781Z,-0.23
2022-12-08T16:35:26.220Z,-0.25
2022-12-08T16:37:52.834Z,-0.24
2022-12-08T16:40:19.339Z,-0.23
2022-12-08T16:42:47.687Z,-0.29
2022-12-08T16:45:21.114Z,-0.27
2022-12-08T16:47:50.721Z,-0.29
2022-12-08T16:50:20.685Z,-0.31
2022-12-08T16:52:48.803Z,-0.33
2022-12-08T16:55:17.709Z,-0.33
2022-12-08T16:57:45.358Z,-0.35
2022-12-08T17:00:15.974Z,-0.39
2022-12-08T17:02:42.705Z,-0.38
2022-12-08T17:05:13.578Z,-0.43
2022-12-08T17:07:41.140Z,-0.51
2022-12-08T17:10:09.978Z,-0.52
2022-12-08T17:12:36.798Z,-0.56
2022-12-08T17:15:08.587Z,-0.56
2022-12-08T17:17:35.553Z,-0.59
2022-12-08T17:20:05.282Z,-0.63
2022-12-08T17:22:33.212Z,-0.68
2022-12-08T17:25:00.584Z,-0.73
2022-12-08T17:27:27.701Z,-0.77
2022-12-08T17:29:54.235Z,-0.82
2022-12-08T17:32:20.875Z,-0.88
2022-12-08T17:34:47.665Z,-0.91
2022-12-08T17:37:14.369Z,-1.00
2022-12-08T17:39:40.804Z,-1.10
2022-12-08T17:42:07.350Z,-1.17
2022-12-08T17:44:35.140Z,-1.22
2022-12-08T17:47:03.558Z,-1.24
2022-12-08T17:49:30.835Z,-1.30
2022-12-08T17:52:00.905Z,-1.38
2022-12-08T17:54:28.543Z,-1.48
2022-12-08T17:56:57.878Z,-1.54
2022-12-08T17:59:24.965Z,-1.55
2022-12-08T18:01:56.333Z,-1.60
2022-12-08T18:04:23.214Z,-1.61
2022-12-08T18:06:49.672Z,-1.63
2022-12-08T18:09:16.184Z,-1.68
2022-12-08T18:11:43.993Z,-1.71
2022-12-08T18:14:11.221Z,-1.74
2022-12-08T18:16:40.143Z,-1.77
2022-12-08T18:19:07.328Z,-1.80
2022-12-08T18:21:33.787Z,-1.85
2022-12-08T18:24:01.001Z,-1.91
2022-12-08T18:26:28.519Z,-1.98
2022-12-08T18:28:54.961Z,-1.99
2022-12-08T18:31:22.624Z,-2.06
2022-12-08T18:33:50.059Z,-2.09
2022-12-08T18:36:22.176Z,-2.17
2022-12-08T18:38:49.032Z,-2.25
2022-12-08T18:41:19.861Z,-2.31
2022-12-08T18:43:46.604Z,-2.34
2022-12-08T18:46:14.532Z,-2.35
2022-12-08T18:48:44.366Z,-2.45
2022-12-08T18:51:21.761Z,-2.50
2022-12-08T18:53:49.181Z,-2.49
2022-12-08T18:56:25.396Z,-2.53
2022-12-08T18:58:51.879Z,-2.61
2022-12-08T19:01:18.553Z,-2.63
2022-12-08T19:04:04.636Z,-2.69
2022-12-08T19:06:31.933Z,-2.75
2022-12-08T19:08:58.367Z,-2.83
2022-12-08T19:11:27.201Z,-2.88
2022-12-08T19:13:54.665Z,-2.92
2022-12-08T19:16:22.126Z,-2.97
2022-12-08T19:18:48.845Z,-3.05
2022-12-08T19:21:15.375Z,-3.05
2022-12-08T19:23:42.024Z,-3.07
2022-12-08T19:26:10.511Z,-3.17
2022-12-08T19:28:37.160Z,-3.26
2022-12-08T19:31:07.878Z,-3.28
2022-12-08T19:33:34.442Z,-3.32
2022-12-08T19:36:07.019Z,-3.36
2022-12-08T19:38:53.892Z,-3.44
2022-12-08T19:41:38.626Z,-3.46
2022-12-08T19:44:23.685Z,-3.48
2022-12-08T19:46:50.183Z,-3.52
2022-12-08T19:49:16.672Z,-3.56
2022-12-08T19:51:43.103Z,-3.65
2022-12-08T19:54:09.701Z,-3.68
2022-12-08T19:56:36.151Z,-3.68
2022-12-08T19:59:02.614Z,-3.70
2022-12-08T20:01:29.159Z,-3.78
2022-12-08T20:03:55.639Z,-3.82
2022-12-08T20:06:23.323Z,-3.82
2022-12-08T20:08:50.896Z,-3.89
2022-12-08T20:11:17.510Z,-3.87
2022-12-08T20:13:45.711Z,-3.88
2022-12-08T20:16:13.485Z,-3.90
2022-12-08T20:18:42.107Z,-3.98
2022-12-08T20:21:09.852Z,-3.98
2022-12-08T20:23:36.999Z,-4.06
2022-12-08T20:26:05.170Z,-4.07
2022-12-08T20:28:31.847Z,-4.09
2022-12-08T20:30:58.416Z,-4.10
2022-12-08T20:33:24.966Z,-4.16
2022-12-08T20:36:00.249Z,-4.21
2022-12-08T20:38:28.053Z,-4.21
2022-12-08T20:40:55.127Z,-4.28
2022-12-08T20:43:21.605Z,-4.35
2022-12-08T20:45:48.069Z,-4.39
2022-12-08T20:48:14.631Z,-4.38
2022-12-08T20:50:41.235Z,-4.44
2022-12-08T20:53:08.427Z,-4.51
2022-12-08T20:55:37.685Z,-4.55
2022-12-08T20:58:04.163Z,-4.55
2022-12-08T21:00:30.755Z,-4.56
2022-12-08T21:02:57.537Z,-4.61
2022-12-08T21:05:24.354Z,-4.68
2022-12-08T21:07:50.958Z,-4.65
2022-12-08T21:10:17.689Z,-4.71
2022-12-08T21:12:44.321Z,-4.74
2022-12-08T21:15:12.403Z,-4.73
2022-12-08T21:17:39.200Z,-4.77
2022-12-08T21:20:07.005Z,-4.81
2022-12-08T21:22:33.806Z,-4.80
2022-12-08T21:25:00.343Z,-4.75
2022-12-08T21:27:26.913Z,-4.74
2022-12-08T21:29:53.539Z,-4.70
2022-12-08T21:32:21.598Z,-4.76
2022-12-08T21:34:51.215Z,-4.79
2022-12-08T21:37:18.074Z,-4.76
2022-12-08T21:39:44.525Z,-4.81
2022-12-08T21:42:34.115Z,-4.80
2022-12-08T21:45:01.353Z,-4.79
2022-12-08T21:47:27.997Z,-4.82
2022-12-08T21:49:54.508Z,-4.76
2022-12-08T21:52:21.150Z,-4.74
2022-12-08T21:54:47.703Z,-4.75
2022-12-08T21:57:14.359Z,-4.76
2022-12-08T21:59:40.897Z,-4.80
2022-12-08T22:02:10.565Z,-4.78
2022-12-08T22:04:37.233Z,-4.77
2022-12-08T22:07:03.938Z,-4.72
2022-12-08T22:09:30.959Z,-4.67
2022-12-08T22:11:57.593Z,-4.73
2022-12-08T22:14:24.067Z,-4.70
2022-12-08T22:16:50.744Z,-4.70
2022-12-08T22:19:17.372Z,-4.67
2022-12-08T22:21:44.051Z,-4.64
2022-12-08T22:24:10.687Z,-4.68
2022-12-08T22:26:37.464Z,-4.65
2022-12-08T22:29:04.110Z,-4.59
2022-12-08T22:31:30.873Z,-4.59
2022-12-08T22:33:59.099Z,-4.56
2022-12-08T22:36:27.467Z,-4.56
2022-12-08T22:38:54.292Z,-4.57
2022-12-08T22:41:21.475Z,-4.55
2022-12-08T22:43:48.768Z,-4.56
2022-12-08T22:46:26.674Z,-4.52
2022-12-08T22:48:54.551Z,-4.49
2022-12-08T22:51:21.941Z,-4.52
2022-12-08T22:53:48.665Z,-4.45
2022-12-08T22:56:16.208Z,-4.39
2022-12-08T22:58:44.090Z,-4.41
2022-12-08T23:01:25.000Z,-4.39
2022-12-08T23:03:52.082Z,-4.36
2022-12-08T23:06:18.732Z,-4.31
2022-12-08T23:08:45.444Z,-4.27
2022-12-08T23:11:12.507Z,-4.26
2022-12-08T23:13:39.838Z,-4.19
2022-12-08T23:16:08.433Z,-4.15
2022-12-08T23:18:39.814Z,-4.12
2022-12-08T23:21:09.154Z,-4.16
2022-12-08T23:23:36.141Z,-4.19
2022-12-08T23:26:02.679Z,-4.13
2022-12-08T23:28:29.303Z,-4.12
2022-12-08T23:30:55.826Z,-4.03
2022-12-08T23:33:22.562Z,-4.01
2022-12-08T23:35:58.246Z,-3.98
2022-12-08T23:38:25.655Z,-3.92
2022-12-08T23:40:52.415Z,-3.91
2022-12-08T23:43:19.639Z,-3.90
2022-12-08T23:45:47.669Z,-3.89
2022-12-08T23:48:14.267Z,-3.83
2022-12-08T23:50:40.957Z,-3.82
2022-12-08T23:53:07.517Z,-3.93
2022-12-08T23:55:33.947Z,-3.93
2022-12-08T23:58:00.508Z,-3.94
